sensor_id;sensor_type;location;lat;lon;timestamp;temperature;humidity
9973;DHT22;5027;53.560;10.062;2023-07-29T00:01:11;20.50;99.90
9973;DHT22;5027;53.560;10.062;2023-07-29T00:03:38;20.50;99.90
9973;DHT22;5027;53.560;10.062;2023-07-29T00:06:05;20.50;99.90
9973;DHT22;5027;53.560;10.062;2023-07-29T00:08:31;20.50;99.90
9973;DHT22;5027;53.560;10.062;2023-07-29T00:10:58;20.50;99.90
9973;DHT22;5027;53.560;10.062;2023-07-29T00:13:25;20.50;99.90
9973;DHT22;5027;53.560;10.062;2023-07-29T00:15:54;20.50;99.90
9973;DHT22;5027;53.560;10.062;2023-07-29T00:18:22;20.50;99.90
9973;DHT22;5027;53.560;10.062;2023-07-29T00:20:49;20.50;99.90
9973;DHT22;5027;53.560;10.062;2023-07-29T00:23:17;20.40;99.90
9973;DHT22;5027;53.560;10.062;2023-07-29T00:25:45;20.40;99.90
9973;DHT22;5027;53.560;10.062;2023-07-29T00:28:12;20.40;99.90
9973;DHT22;5027;53.560;10.062;2023-07-29T00:30:39;20.40;99.90
9973;DHT22;5027;53.560;10.062;2023-07-29T00:33:06;20.40;99.90
9973;DHT22;5027;53.560;10.062;2023-07-29T00:35:33;20.40;99.90
9973;DHT22;5027;53.560;10.062;2023-07-29T00:38:00;20.40;99.90
9973;DHT22;5027;53.560;10.062;2023-07-29T00:40:28;20.40;99.90
9973;DHT22;5027;53.560;10.062;2023-07-29T00:42:55;20.40;99.90
9973;DHT22;5027;53.560;10.062;2023-07-29T00:45:24;20.40;99.90
9973;DHT22;5027;53.560;10.062;2023-07-29T00:47:51;20.40;99.90
9973;DHT22;5027;53.560;10.062;2023-07-29T00:50:18;20.40;99.90
9973;DHT22;5027;53.560;10.062;2023-07-29T00:52:45;20.40;99.90
9973;DHT22;5027;53.560;10.062;2023-07-29T00:55:12;20.40;99.90
9973;DHT22;5027;53.560;10.062;2023-07-29T00:57:39;20.40;99.90
9973;DHT22;5027;53.560;10.062;2023-07-29T01:00:07;20.40;99.90
9973;DHT22;5027;53.560;10.062;2023-07-29T01:02:35;20.40;99.90
9973;DHT22;5027;53.560;10.062;2023-07-29T01:05:02;20.40;99.90
9973;DHT22;5027;53.560;10.062;2023-07-29T01:07:44;20.40;99.90
9973;DHT22;5027;53.560;10.062;2023-07-29T01:12:51;20.40;99.90
9973;DHT22;5027;53.560;10.062;2023-07-29T01:15:26;20.40;99.90
9973;DHT22;5027;53.560;10.062;2023-07-29T01:18:02;20.40;99.90
9973;DHT22;5027;53.560;10.062;2023-07-29T01:20:33;20.40;99.90
9973;DHT22;5027;53.560;10.062;2023-07-29T01:23:00;20.40;99.90
9973;DHT22;5027;53.560;10.062;2023-07-29T01:25:27;20.40;99.90
9973;DHT22;5027;53.560;10.062;2023-07-29T01:27:54;20.40;99.90
9973;DHT22;5027;53.560;10.062;2023-07-29T01:30:29;20.40;99.90
9973;DHT22;5027;53.560;10.062;2023-07-29T01:33:23;20.40;99.90
9973;DHT22;5027;53.560;10.062;2023-07-29T01:36:02;20.40;99.90
9973;DHT22;5027;53.560;10.062;2023-07-29T01:38:35;20.40;99.90
9973;DHT22;5027;53.560;10.062;2023-07-29T01:41:04;20.40;99.90
9973;DHT22;5027;53.560;10.062;2023-07-29T01:43:33;20.40;99.90
9973;DHT22;5027;53.560;10.062;2023-07-29T01:46:00;20.40;99.90
9973;DHT22;5027;53.560;10.062;2023-07-29T01:48:27;20.40;99.90
9973;DHT22;5027;53.560;10.062;2023-07-29T01:50:57;20.40;99.90
9973;DHT22;5027;53.560;10.062;2023-07-29T01:53:23;20.40;99.90
9973;DHT22;5027;53.560;10.062;2023-07-29T01:55:51;20.40;99.90
9973;DHT22;5027;53.560;10.062;2023-07-29T01:58:18;20.40;99.90
9973;DHT22;5027;53.560;10.062;2023-07-29T02:00:47;20.40;99.90
9973;DHT22;5027;53.560;10.062;2023-07-29T02:03:13;20.50;99.90
9973;DHT22;5027;53.560;10.062;2023-07-29T02:05:40;20.50;99.90
9973;DHT22;5027;53.560;10.062;2023-07-29T02:08:08;20.50;99.90
9973;DHT22;5027;53.560;10.062;2023-07-29T02:10:37;20.50;99.90
9973;DHT22;5027;53.560;10.062;2023-07-29T02:13:04;20.50;99.90
9973;DHT22;5027;53.560;10.062;2023-07-29T02:15:30;20.50;99.90
9973;DHT22;5027;53.560;10.062;2023-07-29T02:17:57;20.50;99.90
9973;DHT22;5027;53.560;10.062;2023-07-29T02:20:25;20.50;99.90
9973;DHT22;5027;53.560;10.062;2023-07-29T02:22:52;20.50;99.90
9973;DHT22;5027;53.560;10.062;2023-07-29T02:25:19;20.50;99.90
9973;DHT22;5027;53.560;10.062;2023-07-29T02:27:46;20.50;99.90
9973;DHT22;5027;53.560;10.062;2023-07-29T02:30:12;20.50;99.90
9973;DHT22;5027;53.560;10.062;2023-07-29T02:32:39;20.50;99.90
9973;DHT22;5027;53.560;10.062;2023-07-29T02:35:06;20.50;99.90
9973;DHT22;5027;53.560;10.062;2023-07-29T02:37:33;20.50;99.90
9973;DHT22;5027;53.560;10.062;2023-07-29T02:40:00;20.50;99.90
9973;DHT22;5027;53.560;10.062;2023-07-29T02:42:27;20.50;99.90
9973;DHT22;5027;53.560;10.062;2023-07-29T02:44:54;20.50;99.90
9973;DHT22;5027;53.560;10.062;2023-07-29T02:47:20;20.50;99.90
9973;DHT22;5027;53.560;10.062;2023-07-29T02:49:47;20.50;99.90
9973;DHT22;5027;53.560;10.062;2023-07-29T02:52:14;20.50;99.90
9973;DHT22;5027;53.560;10.062;2023-07-29T02:54:40;20.40;99.90
9973;DHT22;5027;53.560;10.062;2023-07-29T02:57:07;20.40;99.90
9973;DHT22;5027;53.560;10.062;2023-07-29T02:59:34;20.40;99.90
9973;DHT22;5027;53.560;10.062;2023-07-29T03:02:01;20.40;99.90
9973;DHT22;5027;53.560;10.062;2023-07-29T03:04:28;20.40;99.90
9973;DHT22;5027;53.560;10.062;2023-07-29T03:06:55;20.40;99.90
9973;DHT22;5027;53.560;10.062;2023-07-29T03:09:22;20.40;99.90
9973;DHT22;5027;53.560;10.062;2023-07-29T03:11:49;20.40;99.90
9973;DHT22;5027;53.560;10.062;2023-07-29T03:14:15;20.40;99.90
9973;DHT22;5027;53.560;10.062;2023-07-29T03:16:42;20.40;99.90
9973;DHT22;5027;53.560;10.062;2023-07-29T03:19:09;20.30;99.90
9973;DHT22;5027;53.560;10.062;2023-07-29T03:21:36;20.40;99.90
9973;DHT22;5027;53.560;10.062;2023-07-29T03:24:02;20.40;99.90
9973;DHT22;5027;53.560;10.062;2023-07-29T03:26:29;20.40;99.90
9973;DHT22;5027;53.560;10.062;2023-07-29T03:28:56;20.40;99.90
9973;DHT22;5027;53.560;10.062;2023-07-29T03:31:23;20.40;99.90
9973;DHT22;5027;53.560;10.062;2023-07-29T03:33:49;20.40;99.90
9973;DHT22;5027;53.560;10.062;2023-07-29T03:36:16;20.40;99.90
9973;DHT22;5027;53.560;10.062;2023-07-29T03:38:43;20.40;99.90
9973;DHT22;5027;53.560;10.062;2023-07-29T03:41:11;20.40;99.90
9973;DHT22;5027;53.560;10.062;2023-07-29T03:43:38;20.30;99.90
9973;DHT22;5027;53.560;10.062;2023-07-29T03:46:05;20.30;99.90
9973;DHT22;5027;53.560;10.062;2023-07-29T03:48:34;20.30;99.90
9973;DHT22;5027;53.560;10.062;2023-07-29T03:51:01;20.30;99.90
9973;DHT22;5027;53.560;10.062;2023-07-29T03:53:28;20.40;99.90
9973;DHT22;5027;53.560;10.062;2023-07-29T03:55:55;20.30;99.90
9973;DHT22;5027;53.560;10.062;2023-07-29T03:58:22;20.30;99.90
9973;DHT22;5027;53.560;10.062;2023-07-29T04:00:48;20.30;99.90
9973;DHT22;5027;53.560;10.062;2023-07-29T04:03:16;20.30;99.90
9973;DHT22;5027;53.560;10.062;2023-07-29T04:05:43;20.30;99.90
9973;DHT22;5027;53.560;10.062;2023-07-29T04:08:09;20.30;99.90
9973;DHT22;5027;53.560;10.062;2023-07-29T04:10:36;20.30;99.90
9973;DHT22;5027;53.560;10.062;2023-07-29T04:13:04;20.40;99.90
9973;DHT22;5027;53.560;10.062;2023-07-29T04:15:31;20.30;99.90
9973;DHT22;5027;53.560;10.062;2023-07-29T04:17:58;20.30;99.90
9973;DHT22;5027;53.560;10.062;2023-07-29T04:20:25;20.30;99.90
9973;DHT22;5027;53.560;10.062;2023-07-29T04:22:51;20.20;99.90
9973;DHT22;5027;53.560;10.062;2023-07-29T04:25:18;20.20;99.90
9973;DHT22;5027;53.560;10.062;2023-07-29T04:27:45;20.20;99.90
9973;DHT22;5027;53.560;10.062;2023-07-29T04:30:12;20.20;99.90
9973;DHT22;5027;53.560;10.062;2023-07-29T04:32:38;20.30;99.90
9973;DHT22;5027;53.560;10.062;2023-07-29T04:35:07;20.30;99.90
9973;DHT22;5027;53.560;10.062;2023-07-29T04:37:36;20.30;99.90
9973;DHT22;5027;53.560;10.062;2023-07-29T04:40:03;20.30;99.90
9973;DHT22;5027;53.560;10.062;2023-07-29T04:42:30;20.30;99.90
9973;DHT22;5027;53.560;10.062;2023-07-29T04:44:56;20.30;99.90
9973;DHT22;5027;53.560;10.062;2023-07-29T04:47:23;20.30;99.90
9973;DHT22;5027;53.560;10.062;2023-07-29T04:49:52;20.30;99.90
9973;DHT22;5027;53.560;10.062;2023-07-29T04:52:19;20.30;99.90
9973;DHT22;5027;53.560;10.062;2023-07-29T04:54:46;20.20;99.90
9973;DHT22;5027;53.560;10.062;2023-07-29T04:57:13;20.30;99.90
9973;DHT22;5027;53.560;10.062;2023-07-29T04:59:40;20.20;99.90
9973;DHT22;5027;53.560;10.062;2023-07-29T05:02:06;20.20;99.90
9973;DHT22;5027;53.560;10.062;2023-07-29T05:04:33;20.20;99.90
9973;DHT22;5027;53.560;10.062;2023-07-29T05:07:00;20.20;99.90
9973;DHT22;5027;53.560;10.062;2023-07-29T05:09:27;20.30;99.90
9973;DHT22;5027;53.560;10.062;2023-07-29T05:11:54;20.20;99.90
9973;DHT22;5027;53.560;10.062;2023-07-29T05:14:21;20.20;99.90
9973;DHT22;5027;53.560;10.062;2023-07-29T05:16:48;20.30;99.90
9973;DHT22;5027;53.560;10.062;2023-07-29T05:19:15;20.30;99.90
9973;DHT22;5027;53.560;10.062;2023-07-29T05:21:42;20.30;99.90
9973;DHT22;5027;53.560;10.062;2023-07-29T05:24:09;20.30;99.90
9973;DHT22;5027;53.560;10.062;2023-07-29T05:26:35;20.30;99.90
9973;DHT22;5027;53.560;10.062;2023-07-29T05:29:03;20.30;99.90
9973;DHT22;5027;53.560;10.062;2023-07-29T05:31:30;20.40;99.90
9973;DHT22;5027;53.560;10.062;2023-07-29T05:33:58;20.40;99.90
9973;DHT22;5027;53.560;10.062;2023-07-29T05:36:25;20.40;99.90
9973;DHT22;5027;53.560;10.062;2023-07-29T05:38:52;20.40;99.90
9973;DHT22;5027;53.560;10.062;2023-07-29T05:41:19;20.40;99.90
9973;DHT22;5027;53.560;10.062;2023-07-29T05:43:46;20.30;99.90
9973;DHT22;5027;53.560;10.062;2023-07-29T05:46:13;20.40;99.90
9973;DHT22;5027;53.560;10.062;2023-07-29T05:48:40;20.40;99.90
9973;DHT22;5027;53.560;10.062;2023-07-29T05:51:07;20.40;99.90
9973;DHT22;5027;53.560;10.062;2023-07-29T05:53:34;20.40;99.90
9973;DHT22;5027;53.560;10.062;2023-07-29T05:56:01;20.40;99.90
9973;DHT22;5027;53.560;10.062;2023-07-29T05:58:28;20.40;99.90
9973;DHT22;5027;53.560;10.062;2023-07-29T06:00:54;20.40;99.90
9973;DHT22;5027;53.560;10.062;2023-07-29T06:03:21;20.40;99.90
9973;DHT22;5027;53.560;10.062;2023-07-29T06:05:50;20.30;99.90
9973;DHT22;5027;53.560;10.062;2023-07-29T06:08:20;20.30;99.90
9973;DHT22;5027;53.560;10.062;2023-07-29T06:10:47;20.30;99.90
9973;DHT22;5027;53.560;10.062;2023-07-29T06:13:14;20.40;99.90
9973;DHT22;5027;53.560;10.062;2023-07-29T06:15:40;20.40;99.90
9973;DHT22;5027;53.560;10.062;2023-07-29T06:18:07;20.40;99.90
9973;DHT22;5027;53.560;10.062;2023-07-29T06:20:34;20.40;99.90
9973;DHT22;5027;53.560;10.062;2023-07-29T06:23:01;20.50;99.90
9973;DHT22;5027;53.560;10.062;2023-07-29T06:25:28;20.40;99.90
9973;DHT22;5027;53.560;10.062;2023-07-29T06:27:55;20.40;99.90
9973;DHT22;5027;53.560;10.062;2023-07-29T06:30:22;20.40;99.90
9973;DHT22;5027;53.560;10.062;2023-07-29T06:32:48;20.40;99.90
9973;DHT22;5027;53.560;10.062;2023-07-29T06:35:15;20.50;99.90
9973;DHT22;5027;53.560;10.062;2023-07-29T06:37:42;20.50;99.90
9973;DHT22;5027;53.560;10.062;2023-07-29T06:40:09;20.50;99.90
9973;DHT22;5027;53.560;10.062;2023-07-29T06:42:36;20.50;99.90
9973;DHT22;5027;53.560;10.062;2023-07-29T06:45:05;20.50;99.90
9973;DHT22;5027;53.560;10.062;2023-07-29T06:47:32;20.50;99.90
9973;DHT22;5027;53.560;10.062;2023-07-29T06:49:58;20.50;99.90
9973;DHT22;5027;53.560;10.062;2023-07-29T06:52:25;20.50;99.90
9973;DHT22;5027;53.560;10.062;2023-07-29T06:54:52;20.60;99.90
9973;DHT22;5027;53.560;10.062;2023-07-29T06:57:18;20.60;99.90
9973;DHT22;5027;53.560;10.062;2023-07-29T06:59:45;20.60;99.90
9973;DHT22;5027;53.560;10.062;2023-07-29T07:02:12;20.60;99.90
9973;DHT22;5027;53.560;10.062;2023-07-29T07:04:38;20.60;99.90
9973;DHT22;5027;53.560;10.062;2023-07-29T07:07:05;20.60;99.90
9973;DHT22;5027;53.560;10.062;2023-07-29T07:09:32;20.50;99.90
9973;DHT22;5027;53.560;10.062;2023-07-29T07:11:58;20.60;99.90
9973;DHT22;5027;53.560;10.062;2023-07-29T07:14:25;20.50;99.90
9973;DHT22;5027;53.560;10.062;2023-07-29T07:16:52;20.60;99.90
9973;DHT22;5027;53.560;10.062;2023-07-29T07:19:18;20.50;99.90
9973;DHT22;5027;53.560;10.062;2023-07-29T07:21:45;20.60;99.90
9973;DHT22;5027;53.560;10.062;2023-07-29T07:24:12;20.60;99.90
9973;DHT22;5027;53.560;10.062;2023-07-29T07:26:38;20.60;99.90
9973;DHT22;5027;53.560;10.062;2023-07-29T07:29:05;20.50;99.90
9973;DHT22;5027;53.560;10.062;2023-07-29T07:31:33;20.60;99.90
9973;DHT22;5027;53.560;10.062;2023-07-29T07:34:00;20.50;99.90
9973;DHT22;5027;53.560;10.062;2023-07-29T07:36:29;20.60;99.90
9973;DHT22;5027;53.560;10.062;2023-07-29T07:38:56;20.50;99.90
9973;DHT22;5027;53.560;10.062;2023-07-29T07:41:22;20.50;99.90
9973;DHT22;5027;53.560;10.062;2023-07-29T07:43:50;20.50;99.90
9973;DHT22;5027;53.560;10.062;2023-07-29T07:46:17;20.50;99.90
9973;DHT22;5027;53.560;10.062;2023-07-29T07:48:43;20.50;99.90
9973;DHT22;5027;53.560;10.062;2023-07-29T07:51:11;20.50;99.90
9973;DHT22;5027;53.560;10.062;2023-07-29T07:53:38;20.50;99.90
9973;DHT22;5027;53.560;10.062;2023-07-29T07:56:06;20.50;99.90
9973;DHT22;5027;53.560;10.062;2023-07-29T07:58:33;20.50;99.90
9973;DHT22;5027;53.560;10.062;2023-07-29T08:01:05;20.50;99.90
9973;DHT22;5027;53.560;10.062;2023-07-29T08:03:33;20.50;99.90
9973;DHT22;5027;53.560;10.062;2023-07-29T08:06:01;20.50;99.90
9973;DHT22;5027;53.560;10.062;2023-07-29T08:08:28;20.50;99.90
9973;DHT22;5027;53.560;10.062;2023-07-29T08:10:56;20.50;99.90
9973;DHT22;5027;53.560;10.062;2023-07-29T08:13:24;20.60;99.90
9973;DHT22;5027;53.560;10.062;2023-07-29T08:15:52;20.50;99.90
9973;DHT22;5027;53.560;10.062;2023-07-29T08:18:19;20.60;99.90
9973;DHT22;5027;53.560;10.062;2023-07-29T08:20:54;20.60;99.90
9973;DHT22;5027;53.560;10.062;2023-07-29T08:23:21;20.60;99.90
9973;DHT22;5027;53.560;10.062;2023-07-29T08:25:56;20.60;99.90
9973;DHT22;5027;53.560;10.062;2023-07-29T08:28:28;20.50;99.90
9973;DHT22;5027;53.560;10.062;2023-07-29T08:30:55;20.50;99.90
9973;DHT22;5027;53.560;10.062;2023-07-29T08:33:22;20.50;99.90
9973;DHT22;5027;53.560;10.062;2023-07-29T08:35:49;20.60;99.90
9973;DHT22;5027;53.560;10.062;2023-07-29T08:38:15;20.60;99.90
9973;DHT22;5027;53.560;10.062;2023-07-29T08:41:06;20.60;99.90
9973;DHT22;5027;53.560;10.062;2023-07-29T08:43:31;20.60;99.90
9973;DHT22;5027;53.560;10.062;2023-07-29T08:45:59;20.60;99.90
9973;DHT22;5027;53.560;10.062;2023-07-29T08:48:45;20.60;99.90
9973;DHT22;5027;53.560;10.062;2023-07-29T08:51:12;20.60;99.90
9973;DHT22;5027;53.560;10.062;2023-07-29T08:53:39;20.70;99.90
9973;DHT22;5027;53.560;10.062;2023-07-29T08:56:07;20.60;99.90
9973;DHT22;5027;53.560;10.062;2023-07-29T08:58:34;20.60;99.90
9973;DHT22;5027;53.560;10.062;2023-07-29T09:01:01;20.60;99.90
9973;DHT22;5027;53.560;10.062;2023-07-29T09:03:28;20.70;99.90
9973;DHT22;5027;53.560;10.062;2023-07-29T09:05:56;20.70;99.90
9973;DHT22;5027;53.560;10.062;2023-07-29T09:08:27;20.70;99.90
9973;DHT22;5027;53.560;10.062;2023-07-29T09:10:55;20.70;99.90
9973;DHT22;5027;53.560;10.062;2023-07-29T09:13:22;20.70;99.90
9973;DHT22;5027;53.560;10.062;2023-07-29T09:15:49;20.70;99.90
9973;DHT22;5027;53.560;10.062;2023-07-29T09:18:18;20.70;99.90
9973;DHT22;5027;53.560;10.062;2023-07-29T09:20:50;20.70;99.90
9973;DHT22;5027;53.560;10.062;2023-07-29T09:23:17;20.70;99.90
9973;DHT22;5027;53.560;10.062;2023-07-29T09:25:46;20.70;99.90
9973;DHT22;5027;53.560;10.062;2023-07-29T09:28:14;20.70;99.90
9973;DHT22;5027;53.560;10.062;2023-07-29T09:30:44;20.70;99.90
9973;DHT22;5027;53.560;10.062;2023-07-29T09:33:12;20.70;99.90
9973;DHT22;5027;53.560;10.062;2023-07-29T09:35:38;20.80;99.90
9973;DHT22;5027;53.560;10.062;2023-07-29T09:38:06;20.80;99.90
9973;DHT22;5027;53.560;10.062;2023-07-29T09:40:38;20.80;99.90
9973;DHT22;5027;53.560;10.062;2023-07-29T09:43:05;20.80;99.90
9973;DHT22;5027;53.560;10.062;2023-07-29T09:45:34;20.80;99.90
9973;DHT22;5027;53.560;10.062;2023-07-29T09:48:03;20.80;99.90
9973;DHT22;5027;53.560;10.062;2023-07-29T09:50:31;20.80;99.90
9973;DHT22;5027;53.560;10.062;2023-07-29T09:52:58;20.80;99.90
9973;DHT22;5027;53.560;10.062;2023-07-29T09:55:26;20.80;99.90
9973;DHT22;5027;53.560;10.062;2023-07-29T09:57:56;20.80;99.90
9973;DHT22;5027;53.560;10.062;2023-07-29T10:00:24;20.80;99.90
9973;DHT22;5027;53.560;10.062;2023-07-29T10:02:51;20.90;99.90
9973;DHT22;5027;53.560;10.062;2023-07-29T10:05:20;20.80;99.90
9973;DHT22;5027;53.560;10.062;2023-07-29T10:07:49;20.90;99.90
9973;DHT22;5027;53.560;10.062;2023-07-29T10:10:16;20.90;99.90
9973;DHT22;5027;53.560;10.062;2023-07-29T10:12:43;20.90;99.90
9973;DHT22;5027;53.560;10.062;2023-07-29T10:15:10;20.90;99.90
9973;DHT22;5027;53.560;10.062;2023-07-29T10:17:38;20.90;99.90
9973;DHT22;5027;53.560;10.062;2023-07-29T10:20:07;20.90;99.90
9973;DHT22;5027;53.560;10.062;2023-07-29T10:22:39;20.90;99.90
9973;DHT22;5027;53.560;10.062;2023-07-29T10:25:13;21.00;99.90
9973;DHT22;5027;53.560;10.062;2023-07-29T10:27:43;21.00;99.90
9973;DHT22;5027;53.560;10.062;2023-07-29T10:30:13;21.00;99.90
9973;DHT22;5027;53.560;10.062;2023-07-29T10:32:44;21.00;99.90
9973;DHT22;5027;53.560;10.062;2023-07-29T10:35:13;21.00;99.90
9973;DHT22;5027;53.560;10.062;2023-07-29T10:37:40;21.00;99.90
9973;DHT22;5027;53.560;10.062;2023-07-29T10:40:10;21.10;99.90
9973;DHT22;5027;53.560;10.062;2023-07-29T10:42:38;21.00;99.90
9973;DHT22;5027;53.560;10.062;2023-07-29T10:45:21;21.00;99.90
9973;DHT22;5027;53.560;10.062;2023-07-29T10:47:48;21.00;99.90
9973;DHT22;5027;53.560;10.062;2023-07-29T10:50:22;21.00;99.90
9973;DHT22;5027;53.560;10.062;2023-07-29T10:52:50;21.00;99.90
9973;DHT22;5027;53.560;10.062;2023-07-29T10:55:29;21.00;99.90
9973;DHT22;5027;53.560;10.062;2023-07-29T10:58:13;21.00;99.90
9973;DHT22;5027;53.560;10.062;2023-07-29T11:00:46;21.00;99.90
9973;DHT22;5027;53.560;10.062;2023-07-29T11:03:13;21.00;99.90
9973;DHT22;5027;53.560;10.062;2023-07-29T11:05:51;21.00;99.90
9973;DHT22;5027;53.560;10.062;2023-07-29T11:11:08;21.00;99.90
9973;DHT22;5027;53.560;10.062;2023-07-29T11:13:38;21.00;99.90
9973;DHT22;5027;53.560;10.062;2023-07-29T11:16:05;21.10;99.90
9973;DHT22;5027;53.560;10.062;2023-07-29T11:18:34;21.10;99.90
9973;DHT22;5027;53.560;10.062;2023-07-29T11:21:02;21.10;99.90
9973;DHT22;5027;53.560;10.062;2023-07-29T11:23:34;21.10;99.90
9973;DHT22;5027;53.560;10.062;2023-07-29T11:26:02;21.10;99.90
9973;DHT22;5027;53.560;10.062;2023-07-29T11:28:30;21.10;99.90
9973;DHT22;5027;53.560;10.062;2023-07-29T11:30:57;21.20;99.90
9973;DHT22;5027;53.560;10.062;2023-07-29T11:33:25;21.20;99.90
9973;DHT22;5027;53.560;10.062;2023-07-29T11:35:55;21.20;99.90
9973;DHT22;5027;53.560;10.062;2023-07-29T11:38:22;21.20;99.90
9973;DHT22;5027;53.560;10.062;2023-07-29T11:40:58;21.20;99.90
9973;DHT22;5027;53.560;10.062;2023-07-29T11:43:25;21.20;99.90
9973;DHT22;5027;53.560;10.062;2023-07-29T11:45:53;21.10;99.90
9973;DHT22;5027;53.560;10.062;2023-07-29T11:48:28;21.10;99.90
9973;DHT22;5027;53.560;10.062;2023-07-29T11:50:55;21.20;99.90
9973;DHT22;5027;53.560;10.062;2023-07-29T11:53:22;21.20;99.90
9973;DHT22;5027;53.560;10.062;2023-07-29T11:55:52;21.20;99.90
9973;DHT22;5027;53.560;10.062;2023-07-29T11:58:20;21.30;99.90
9973;DHT22;5027;53.560;10.062;2023-07-29T12:00:48;21.30;99.90
9973;DHT22;5027;53.560;10.062;2023-07-29T12:03:16;21.30;99.90
9973;DHT22;5027;53.560;10.062;2023-07-29T12:05:44;21.30;99.90
9973;DHT22;5027;53.560;10.062;2023-07-29T12:08:11;21.30;99.90
9973;DHT22;5027;53.560;10.062;2023-07-29T12:10:38;21.40;99.90
9973;DHT22;5027;53.560;10.062;2023-07-29T12:13:07;21.30;99.90
9973;DHT22;5027;53.560;10.062;2023-07-29T12:15:34;21.30;99.90
9973;DHT22;5027;53.560;10.062;2023-07-29T12:18:01;21.50;99.90
9973;DHT22;5027;53.560;10.062;2023-07-29T12:20:29;21.40;99.90
9973;DHT22;5027;53.560;10.062;2023-07-29T12:22:57;21.40;99.90
9973;DHT22;5027;53.560;10.062;2023-07-29T12:25:26;21.50;99.90
9973;DHT22;5027;53.560;10.062;2023-07-29T12:27:53;21.50;99.90
9973;DHT22;5027;53.560;10.062;2023-07-29T12:30:21;21.40;99.90
9973;DHT22;5027;53.560;10.062;2023-07-29T12:32:48;21.40;99.90
9973;DHT22;5027;53.560;10.062;2023-07-29T12:35:15;21.40;99.90
9973;DHT22;5027;53.560;10.062;2023-07-29T12:37:42;21.40;99.90
9973;DHT22;5027;53.560;10.062;2023-07-29T12:40:26;21.50;99.90
9973;DHT22;5027;53.560;10.062;2023-07-29T12:42:53;21.50;99.90
9973;DHT22;5027;53.560;10.062;2023-07-29T12:45:20;21.60;99.90
9973;DHT22;5027;53.560;10.062;2023-07-29T12:47:49;21.50;99.90
9973;DHT22;5027;53.560;10.062;2023-07-29T12:50:16;21.40;99.90
9973;DHT22;5027;53.560;10.062;2023-07-29T12:52:43;21.50;99.90
9973;DHT22;5027;53.560;10.062;2023-07-29T12:55:10;21.40;99.90
9973;DHT22;5027;53.560;10.062;2023-07-29T12:57:41;21.50;99.90
9973;DHT22;5027;53.560;10.062;2023-07-29T13:00:09;21.50;99.90
9973;DHT22;5027;53.560;10.062;2023-07-29T13:02:36;21.40;99.90
9973;DHT22;5027;53.560;10.062;2023-07-29T13:05:03;21.40;99.90
9973;DHT22;5027;53.560;10.062;2023-07-29T13:07:30;21.50;99.90
9973;DHT22;5027;53.560;10.062;2023-07-29T13:09:57;21.40;99.90
9973;DHT22;5027;53.560;10.062;2023-07-29T13:12:24;21.50;99.90
9973;DHT22;5027;53.560;10.062;2023-07-29T13:14:50;21.70;99.90
9973;DHT22;5027;53.560;10.062;2023-07-29T13:17:17;21.60;99.90
9973;DHT22;5027;53.560;10.062;2023-07-29T13:19:44;21.60;99.90
9973;DHT22;5027;53.560;10.062;2023-07-29T13:22:14;21.60;99.90
9973;DHT22;5027;53.560;10.062;2023-07-29T13:24:40;21.80;99.90
9973;DHT22;5027;53.560;10.062;2023-07-29T13:27:07;22.00;99.90
9973;DHT22;5027;53.560;10.062;2023-07-29T13:29:34;21.80;99.90
9973;DHT22;5027;53.560;10.062;2023-07-29T13:32:00;21.80;99.90
9973;DHT22;5027;53.560;10.062;2023-07-29T13:34:28;21.70;99.90
9973;DHT22;5027;53.560;10.062;2023-07-29T13:36:55;21.80;99.90
9973;DHT22;5027;53.560;10.062;2023-07-29T13:39:22;21.90;99.90
9973;DHT22;5027;53.560;10.062;2023-07-29T13:41:48;22.10;99.90
9973;DHT22;5027;53.560;10.062;2023-07-29T13:44:15;22.10;99.90
9973;DHT22;5027;53.560;10.062;2023-07-29T13:46:42;21.90;99.90
9973;DHT22;5027;53.560;10.062;2023-07-29T13:49:08;22.00;99.90
9973;DHT22;5027;53.560;10.062;2023-07-29T13:51:35;21.90;99.90
9973;DHT22;5027;53.560;10.062;2023-07-29T13:54:02;21.70;99.90
9973;DHT22;5027;53.560;10.062;2023-07-29T13:56:29;21.70;99.90
9973;DHT22;5027;53.560;10.062;2023-07-29T13:58:56;21.80;99.90
9973;DHT22;5027;53.560;10.062;2023-07-29T14:01:22;21.80;99.90
9973;DHT22;5027;53.560;10.062;2023-07-29T14:03:49;21.80;99.90
9973;DHT22;5027;53.560;10.062;2023-07-29T14:06:16;22.00;99.90
9973;DHT22;5027;53.560;10.062;2023-07-29T14:08:44;22.00;99.90
9973;DHT22;5027;53.560;10.062;2023-07-29T14:11:11;22.10;99.90
9973;DHT22;5027;53.560;10.062;2023-07-29T14:13:37;22.00;99.90
9973;DHT22;5027;53.560;10.062;2023-07-29T14:16:04;22.00;99.90
9973;DHT22;5027;53.560;10.062;2023-07-29T14:18:31;22.10;99.90
9973;DHT22;5027;53.560;10.062;2023-07-29T14:20:58;22.20;99.90
9973;DHT22;5027;53.560;10.062;2023-07-29T14:23:24;22.20;99.90
9973;DHT22;5027;53.560;10.062;2023-07-29T14:25:51;22.10;99.90
9973;DHT22;5027;53.560;10.062;2023-07-29T14:28:18;22.00;99.90
9973;DHT22;5027;53.560;10.062;2023-07-29T14:30:45;21.80;99.90
9973;DHT22;5027;53.560;10.062;2023-07-29T14:33:11;21.80;99.90
9973;DHT22;5027;53.560;10.062;2023-07-29T14:35:38;21.80;99.90
9973;DHT22;5027;53.560;10.062;2023-07-29T14:38:05;21.70;99.90
9973;DHT22;5027;53.560;10.062;2023-07-29T14:40:32;21.70;99.90
9973;DHT22;5027;53.560;10.062;2023-07-29T14:42:59;21.80;99.90
9973;DHT22;5027;53.560;10.062;2023-07-29T14:45:25;21.80;99.90
9973;DHT22;5027;53.560;10.062;2023-07-29T14:47:52;21.80;99.90
9973;DHT22;5027;53.560;10.062;2023-07-29T14:50:19;21.90;99.90
9973;DHT22;5027;53.560;10.062;2023-07-29T14:52:46;21.80;99.90
9973;DHT22;5027;53.560;10.062;2023-07-29T14:55:12;22.00;99.90
9973;DHT22;5027;53.560;10.062;2023-07-29T14:57:39;21.80;99.90
9973;DHT22;5027;53.560;10.062;2023-07-29T15:00:08;21.90;99.90
9973;DHT22;5027;53.560;10.062;2023-07-29T15:02:35;21.80;99.90
9973;DHT22;5027;53.560;10.062;2023-07-29T15:05:02;22.00;99.90
9973;DHT22;5027;53.560;10.062;2023-07-29T15:07:29;22.00;99.90
9973;DHT22;5027;53.560;10.062;2023-07-29T15:09:55;21.90;99.90
9973;DHT22;5027;53.560;10.062;2023-07-29T15:12:22;21.80;99.90
9973;DHT22;5027;53.560;10.062;2023-07-29T15:14:50;22.00;99.90
9973;DHT22;5027;53.560;10.062;2023-07-29T15:17:16;22.00;99.90
9973;DHT22;5027;53.560;10.062;2023-07-29T15:19:43;21.90;99.90
9973;DHT22;5027;53.560;10.062;2023-07-29T15:22:10;21.90;99.90
9973;DHT22;5027;53.560;10.062;2023-07-29T15:24:37;21.90;99.90
9973;DHT22;5027;53.560;10.062;2023-07-29T15:27:05;22.00;99.90
9973;DHT22;5027;53.560;10.062;2023-07-29T15:29:32;21.90;99.90
9973;DHT22;5027;53.560;10.062;2023-07-29T15:31:59;21.90;99.90
9973;DHT22;5027;53.560;10.062;2023-07-29T15:34:26;21.80;99.90
9973;DHT22;5027;53.560;10.062;2023-07-29T15:36:53;21.80;99.90
9973;DHT22;5027;53.560;10.062;2023-07-29T15:39:19;21.80;99.90
9973;DHT22;5027;53.560;10.062;2023-07-29T15:41:46;21.80;99.90
9973;DHT22;5027;53.560;10.062;2023-07-29T15:44:13;21.70;99.90
9973;DHT22;5027;53.560;10.062;2023-07-29T15:46:39;21.80;99.90
9973;DHT22;5027;53.560;10.062;2023-07-29T15:49:07;21.70;99.90
9973;DHT22;5027;53.560;10.062;2023-07-29T15:51:33;21.80;99.90
9973;DHT22;5027;53.560;10.062;2023-07-29T15:54:00;22.00;99.90